createdAt,value
2022-12-17T00:02:26.319Z,100883.19
2022-12-17T00:12:57.102Z,100885.16
2022-12-17T00:23:16.920Z,100893.38
2022-12-17T00:33:37.605Z,100903.38
2022-12-17T00:43:57.825Z,100901.81
2022-12-17T00:54:17.699Z,100908.47
2022-12-17T01:04:37.979Z,100918.84
2022-12-17T01:14:58.015Z,100926.94
2022-12-17T01:25:17.867Z,100944.44
2022-12-17T01:35:42.422Z,100956.94
2022-12-17T01:46:02.286Z,100966.00
2022-12-17T01:56:22.181Z,100979.81
2022-12-17T02:06:42.276Z,101001.22
2022-12-17T02:17:02.017Z,100999.97
2022-12-17T02:27:21.823Z,101003.34
2022-12-17T02:37:42.186Z,101001.41
2022-12-17T02:48:01.972Z,101016.53
2022-12-17T02:58:21.882Z,101022.72
2022-12-17T03:08:41.963Z,101032.00
2022-12-17T03:19:01.879Z,101030.81
2022-12-17T03:29:21.884Z,101040.53
2022-12-17T03:39:41.986Z,101046.94
2022-12-17T03:50:01.909Z,101064.63
2022-12-17T04:00:21.706Z,101081.13
2022-12-17T04:10:41.996Z,101079.28
2022-12-17T04:21:01.805Z,101099.44
2022-12-17T04:31:22.035Z,101091.63
2022-12-17T04:41:42.364Z,101103.84
2022-12-17T04:52:02.233Z,101113.84
2022-12-17T05:02:22.454Z,101117.41
2022-12-17T05:12:42.830Z,101126.09
2022-12-17T05:23:02.768Z,101135.25
2022-12-17T05:33:22.831Z,101151.16
2022-12-17T05:43:42.756Z,101144.19
2022-12-17T05:54:02.799Z,101155.56
2022-12-17T06:04:22.767Z,101157.06
2022-12-17T06:14:42.657Z,101171.84
2022-12-17T06:25:02.677Z,101174.69
2022-12-17T06:35:22.697Z,101195.13
2022-12-17T06:45:42.632Z,101221.81
2022-12-17T06:56:02.684Z,101216.53
2022-12-17T07:06:22.844Z,101230.16
2022-12-17T07:16:42.908Z,101252.53
2022-12-17T07:27:03.206Z,101270.00
2022-12-17T07:37:23.286Z,101282.81
2022-12-17T07:47:43.149Z,101301.47
2022-12-17T07:58:03.269Z,101325.03
2022-12-17T08:08:23.312Z,101332.63
2022-12-17T08:18:43.352Z,101353.78
2022-12-17T08:29:03.278Z,101369.47
2022-12-17T08:39:23.435Z,101366.06
2022-12-17T08:49:43.217Z,101377.31
2022-12-17T09:00:03.243Z,101396.53
2022-12-17T09:10:23.111Z,101393.38
2022-12-17T09:20:43.068Z,101403.78
2022-12-17T09:31:03.159Z,101399.84
2022-12-17T09:41:23.404Z,101423.13
2022-12-17T09:51:43.139Z,101426.50
2022-12-17T10:02:23.258Z,101432.91
2022-12-17T10:12:43.184Z,101446.41
2022-12-17T10:23:03.156Z,101431.69
2022-12-17T10:33:23.184Z,101435.53
2022-12-17T10:43:43.167Z,101429.50
2022-12-17T10:54:03.114Z,101445.81
2022-12-17T11:04:23.100Z,101432.63
2022-12-17T11:14:42.983Z,101439.00
2022-12-17T11:25:02.984Z,101433.41
2022-12-17T11:35:22.998Z,101447.50
2022-12-17T11:45:42.739Z,101445.44
2022-12-17T11:56:04.040Z,101446.44
2022-12-17T12:06:24.125Z,101447.38
2022-12-17T12:16:44.269Z,101443.13
2022-12-17T12:27:04.228Z,101441.38
2022-12-17T12:37:24.310Z,101443.31
2022-12-17T12:47:44.161Z,101439.69
2022-12-17T12:58:04.169Z,101427.06
2022-12-17T13:08:05.437Z,101420.47
2022-12-17T13:18:07.025Z,101422.53
2022-12-17T13:28:08.341Z,101407.19
2022-12-17T13:38:09.586Z,101419.41
2022-12-17T13:48:10.855Z,101425.28
2022-12-17T13:58:12.136Z,101433.13
2022-12-17T14:08:13.418Z,101435.31
2022-12-17T14:18:14.662Z,101439.22
2022-12-17T14:28:15.987Z,101432.94
2022-12-17T14:38:36.631Z,101431.56
2022-12-17T14:48:57.166Z,101440.59
2022-12-17T14:58:58.439Z,101445.28
2022-12-17T15:08:59.702Z,101469.22
2022-12-17T15:19:01.197Z,101470.50
2022-12-17T15:29:02.774Z,101474.66
2022-12-17T15:39:06.196Z,101478.22
2022-12-17T15:49:07.506Z,101481.41
2022-12-17T15:59:08.792Z,101482.63
2022-12-17T16:09:10.083Z,101475.13
2022-12-17T16:19:11.375Z,101473.16
2022-12-17T16:29:12.688Z,101479.84
2022-12-17T16:39:13.964Z,101479.84
2022-12-17T16:49:16.338Z,101502.81
2022-12-17T16:59:17.604Z,101510.00
2022-12-17T17:09:18.847Z,101510.56
2022-12-17T17:19:20.590Z,101507.31
2022-12-17T17:29:29.331Z,101508.81
2022-12-17T17:39:33.219Z,101513.75
2022-12-17T17:49:34.619Z,101526.19
2022-12-17T17:59:35.902Z,101526.06
2022-12-17T18:09:37.170Z,101540.44
2022-12-17T18:19:38.460Z,101536.38
2022-12-17T18:29:39.760Z,101544.44
2022-12-17T18:39:41.076Z,101552.53
2022-12-17T18:49:42.345Z,101555.41
2022-12-17T18:59:43.635Z,101560.31
2022-12-17T19:09:45.009Z,101572.28
2022-12-17T19:19:46.292Z,101565.19
2022-12-17T19:29:49.589Z,101587.56
2022-12-17T19:39:51.344Z,101572.97
2022-12-17T19:49:52.716Z,101572.94
2022-12-17T19:59:53.982Z,101568.97
2022-12-17T20:09:55.224Z,101577.34
2022-12-17T20:19:57.782Z,101569.28
2022-12-17T20:29:59.343Z,101584.78
2022-12-17T20:40:00.675Z,101571.47
2022-12-17T20:50:01.970Z,101575.00
2022-12-17T21:00:03.380Z,101563.06
2022-12-17T21:10:04.604Z,101572.69
2022-12-17T21:20:08.876Z,101583.50
2022-12-17T21:30:13.379Z,101572.75
2022-12-17T21:40:14.921Z,101587.56
2022-12-17T21:50:16.225Z,101592.53
2022-12-17T22:00:17.526Z,101612.19
2022-12-17T22:10:41.243Z,101603.97
2022-12-17T22:20:40.109Z,101608.41
2022-12-17T22:31:00.157Z,101618.59
2022-12-17T22:44:32.403Z,101606.66
2022-12-17T22:51:38.115Z,101624.75
2022-12-17T23:01:43.552Z,101625.53
2022-12-17T23:11:44.847Z,101624.69
2022-12-17T23:21:46.091Z,101613.53
2022-12-17T23:31:47.630Z,101615.75
2022-12-17T23:41:48.942Z,101618.78
2022-12-17T23:51:50.187Z,101609.13
